createdAt,value
2022-08-02T00:01:36.405Z,100851.63
2022-08-02T00:04:26.284Z,100864.88
2022-08-02T00:07:17.269Z,100873.47
2022-08-02T00:10:11.208Z,100868.44
2022-08-02T00:13:00.842Z,100867.56
2022-08-02T00:15:51.032Z,100866.53
2022-08-02T00:18:41.664Z,100869.91
2022-08-02T00:21:32.028Z,100873.56
2022-08-02T00:24:30.598Z,100882.63
2022-08-02T00:27:33.931Z,100890.91
2022-08-02T00:30:24.314Z,100888.22
2022-08-02T00:33:14.650Z,100885.19
2022-08-02T00:36:05.452Z,100895.09
2022-08-02T00:38:55.753Z,100899.47
2022-08-02T00:41:54.589Z,100895.09
2022-08-02T00:44:47.063Z,100901.81
2022-08-02T00:47:37.492Z,100903.50
2022-08-02T00:50:30.682Z,100899.44
2022-08-02T00:53:20.398Z,100895.38
2022-08-02T00:56:10.923Z,100902.09
2022-08-02T00:59:03.638Z,100895.03
2022-08-02T01:01:56.450Z,100906.66
2022-08-02T01:04:50.688Z,100906.31
2022-08-02T01:07:41.945Z,100914.19
2022-08-02T01:10:32.071Z,100911.19
2022-08-02T01:13:22.025Z,100917.22
2022-08-02T01:16:18.002Z,100924.28
2022-08-02T01:19:37.448Z,100936.25
2022-08-02T01:23:00.993Z,100931.66
2022-08-02T01:26:16.534Z,100924.06
2022-08-02T01:29:11.120Z,100928.63
2022-08-02T01:32:15.670Z,100926.63
2022-08-02T01:35:12.601Z,100921.53
2022-08-02T01:38:09.824Z,100916.63
2022-08-02T01:41:01.937Z,100920.66
2022-08-02T01:43:54.911Z,100913.03
2022-08-02T01:46:45.075Z,100918.88
2022-08-02T01:49:37.539Z,100914.47
2022-08-02T01:52:34.864Z,100917.47
2022-08-02T01:55:57.137Z,100910.75
2022-08-02T01:58:44.534Z,100912.56
2022-08-02T02:01:37.474Z,100906.81
2022-08-02T02:04:36.172Z,100905.25
2022-08-02T02:07:28.647Z,100897.72
2022-08-02T02:10:21.660Z,100891.63
2022-08-02T02:13:15.993Z,100885.91
2022-08-02T02:16:07.889Z,100896.31
2022-08-02T02:18:58.005Z,100890.38
2022-08-02T02:21:48.217Z,100891.13
2022-08-02T02:24:48.873Z,100889.38
2022-08-02T02:27:40.275Z,100906.94
2022-08-02T02:30:31.366Z,100894.34
2022-08-02T02:33:29.359Z,100887.09
2022-08-02T02:36:21.094Z,100885.81
2022-08-02T02:39:13.618Z,100887.84
2022-08-02T02:42:06.022Z,100878.31
2022-08-02T02:44:56.405Z,100889.03
2022-08-02T02:47:46.917Z,100898.16
2022-08-02T02:50:37.620Z,100885.31
2022-08-02T02:53:28.055Z,100893.41
2022-08-02T02:56:18.349Z,100875.81
2022-08-02T02:59:10.696Z,100874.16
2022-08-02T03:02:01.801Z,100882.53
2022-08-02T03:04:56.889Z,100872.28
2022-08-02T03:07:47.138Z,100853.31
2022-08-02T03:10:37.614Z,100869.94
2022-08-02T03:13:33.146Z,100856.28
2022-08-02T03:16:29.845Z,100855.25
2022-08-02T03:19:21.106Z,100860.56
2022-08-02T03:22:11.388Z,100844.34
2022-08-02T03:25:01.287Z,100849.47
2022-08-02T03:27:50.611Z,100843.69
2022-08-02T03:30:41.235Z,100844.81
2022-08-02T03:33:31.961Z,100834.94
2022-08-02T03:36:25.743Z,100839.59
2022-08-02T03:39:18.346Z,100836.97
2022-08-02T03:42:09.252Z,100838.28
2022-08-02T03:45:08.767Z,100831.91
2022-08-02T03:47:59.495Z,100840.72
2022-08-02T03:50:50.207Z,100847.13
2022-08-02T03:53:43.015Z,100835.94
2022-08-02T03:56:33.412Z,100818.63
2022-08-02T03:59:23.203Z,100822.22
2022-08-02T04:02:14.852Z,100824.13
2022-08-02T04:05:05.780Z,100817.56
2022-08-02T04:08:32.519Z,100815.53
2022-08-02T04:11:24.654Z,100814.72
2022-08-02T04:14:15.225Z,100817.22
2022-08-02T04:17:08.447Z,100811.38
2022-08-02T04:20:08.143Z,100809.47
2022-08-02T04:23:10.140Z,100807.25
2022-08-02T04:26:01.523Z,100802.22
2022-08-02T04:28:52.114Z,100802.22
2022-08-02T04:31:43.527Z,100789.59
2022-08-02T04:34:33.990Z,100790.25
2022-08-02T04:37:23.928Z,100783.16
2022-08-02T04:40:14.666Z,100779.03
2022-08-02T04:43:05.165Z,100781.34
2022-08-02T04:45:56.460Z,100774.03
2022-08-02T04:48:47.372Z,100777.00
2022-08-02T04:51:42.671Z,100777.44
2022-08-02T04:54:34.098Z,100767.03
2022-08-02T04:57:50.703Z,100762.91
2022-08-02T05:00:43.376Z,100755.88
2022-08-02T05:03:33.760Z,100765.25
2022-08-02T05:06:23.716Z,100758.44
2022-08-02T05:09:13.794Z,100762.03
2022-08-02T05:12:03.555Z,100753.47
2022-08-02T05:14:53.862Z,100750.16
2022-08-02T05:17:48.251Z,100756.75
2022-08-02T05:20:38.985Z,100748.63
2022-08-02T05:23:28.775Z,100742.13
2022-08-02T05:26:18.855Z,100737.56
2022-08-02T05:29:08.843Z,100736.31
2022-08-02T05:31:59.342Z,100736.69
2022-08-02T05:34:50.421Z,100727.94
2022-08-02T05:37:40.125Z,100727.03
2022-08-02T05:40:32.748Z,100723.53
2022-08-02T05:43:22.871Z,100729.16
2022-08-02T05:46:13.447Z,100723.09
2022-08-02T05:49:05.813Z,100709.38
2022-08-02T05:52:05.669Z,100710.38
2022-08-02T05:55:10.548Z,100713.47
2022-08-02T05:58:25.898Z,100710.31
2022-08-02T06:01:20.344Z,100717.06
2022-08-02T06:04:12.377Z,100715.41
2022-08-02T06:07:07.943Z,100709.06
2022-08-02T06:10:01.174Z,100707.72
2022-08-02T06:13:03.406Z,100718.16
2022-08-02T06:16:00.833Z,100703.25
2022-08-02T06:18:51.051Z,100713.25
2022-08-02T06:22:33.327Z,100701.59
2022-08-02T06:24:58.235Z,100704.06
2022-08-02T06:27:49.078Z,100698.78
2022-08-02T06:30:39.728Z,100696.91
2022-08-02T06:33:29.538Z,100695.66
2022-08-02T06:36:29.060Z,100700.84
2022-08-02T06:39:52.276Z,100691.22
2022-08-02T06:43:11.209Z,100702.28
2022-08-02T06:46:37.572Z,100698.94
2022-08-02T06:49:10.938Z,100685.63
2022-08-02T06:52:00.560Z,100690.19
2022-08-02T06:54:50.480Z,100683.69
2022-08-02T06:57:40.222Z,100687.41
2022-08-02T07:00:30.051Z,100690.25
2022-08-02T07:03:20.362Z,100684.16
2022-08-02T07:06:11.125Z,100687.44
2022-08-02T07:09:20.069Z,100686.97
2022-08-02T07:12:10.888Z,100677.28
2022-08-02T07:15:06.698Z,100673.75
2022-08-02T07:17:57.061Z,100675.09
2022-08-02T07:20:51.733Z,100666.88
2022-08-02T07:23:41.945Z,100663.00
2022-08-02T07:26:31.531Z,100666.00
2022-08-02T07:29:21.386Z,100680.25
2022-08-02T07:32:11.578Z,100684.91
2022-08-02T07:35:04.053Z,100675.28
2022-08-02T07:38:01.875Z,100683.66
2022-08-02T07:40:51.866Z,100677.81
2022-08-02T07:43:42.377Z,100681.56
2022-08-02T07:46:32.574Z,100677.38
2022-08-02T07:49:22.632Z,100670.28
2022-08-02T07:52:13.560Z,100673.16
2022-08-02T07:55:04.120Z,100666.50
2022-08-02T07:57:54.634Z,100676.47
2022-08-02T08:00:45.397Z,100689.38
2022-08-02T08:03:36.309Z,100686.25
2022-08-02T08:06:28.747Z,100696.84
2022-08-02T08:09:19.360Z,100697.69
2022-08-02T08:12:10.930Z,100693.09
2022-08-02T08:15:01.092Z,100700.97
2022-08-02T08:17:50.916Z,100706.38
2022-08-02T08:20:40.854Z,100715.06
2022-08-02T08:23:31.292Z,100698.00
2022-08-02T08:26:20.759Z,100709.25
2022-08-02T08:29:10.053Z,100703.38
2022-08-02T08:32:01.188Z,100706.72
2022-08-02T08:34:52.689Z,100700.50
2022-08-02T08:37:42.595Z,100700.25
2022-08-02T08:40:32.260Z,100695.47
2022-08-02T08:43:22.937Z,100690.88
2022-08-02T08:46:35.971Z,100698.34
2022-08-02T08:49:52.366Z,100705.22
2022-08-02T08:52:54.980Z,100708.94
2022-08-02T08:55:45.644Z,100712.06
2022-08-02T08:58:35.932Z,100726.16
2022-08-02T09:01:26.767Z,100724.31
2022-08-02T09:04:36.948Z,100726.13
2022-08-02T09:07:27.574Z,100734.25
2022-08-02T09:10:36.618Z,100730.25
2022-08-02T09:13:45.264Z,100735.19
2022-08-02T09:16:41.397Z,100735.66
2022-08-02T09:19:35.013Z,100743.50
2022-08-02T09:22:24.638Z,100750.59
2022-08-02T09:25:18.333Z,100745.56
2022-08-02T09:28:08.508Z,100759.25
2022-08-02T09:31:09.973Z,100767.13
2022-08-02T09:34:01.651Z,100775.03
2022-08-02T09:36:54.360Z,100771.25
2022-08-02T09:39:50.090Z,100777.88
2022-08-02T09:43:02.880Z,100786.19
2022-08-02T09:45:52.224Z,100793.84
2022-08-02T09:48:59.521Z,100804.47
2022-08-02T09:51:52.278Z,100800.72
2022-08-02T09:54:44.276Z,100805.88
2022-08-02T09:57:35.097Z,100810.63
2022-08-02T10:00:37.428Z,100811.03
2022-08-02T10:03:35.082Z,100814.38
2022-08-02T10:06:28.185Z,100823.91
2022-08-02T10:09:18.007Z,100824.94
2022-08-02T10:12:08.391Z,100823.91
2022-08-02T10:14:58.141Z,100835.72
2022-08-02T10:17:49.310Z,100836.13
2022-08-02T10:20:46.458Z,100844.78
2022-08-02T10:23:36.696Z,100843.78
2022-08-02T10:26:27.162Z,100854.59
2022-08-02T10:29:53.800Z,100852.03
2022-08-02T10:32:47.202Z,100856.38
2022-08-02T10:35:40.929Z,100847.78
2022-08-02T10:38:30.734Z,100849.28
2022-08-02T10:41:53.328Z,100839.94
2022-08-02T10:44:43.823Z,100845.47
2022-08-02T10:47:34.503Z,100850.88
2022-08-02T10:50:48.392Z,100852.81
2022-08-02T10:53:38.262Z,100841.09
2022-08-02T10:56:47.945Z,100832.34
2022-08-02T10:59:38.821Z,100839.81
2022-08-02T11:02:40.468Z,100841.09
2022-08-02T11:05:43.042Z,100838.50
2022-08-02T11:08:34.728Z,100830.22
2022-08-02T11:11:53.865Z,100831.53
2022-08-02T11:14:38.602Z,100834.41
2022-08-02T11:17:38.115Z,100834.41
2022-08-02T11:20:33.179Z,100845.59
2022-08-02T11:23:44.525Z,100839.38
2022-08-02T11:26:36.777Z,100853.50
2022-08-02T11:29:49.457Z,100848.56
2022-08-02T11:32:39.112Z,100847.66
2022-08-02T11:35:40.237Z,100856.34
2022-08-02T11:38:30.689Z,100856.53
2022-08-02T11:41:46.195Z,100859.63
2022-08-02T11:44:43.302Z,100842.19
2022-08-02T11:47:35.971Z,100845.09
2022-08-02T11:50:30.272Z,100846.50
2022-08-02T11:53:20.673Z,100839.22
2022-08-02T11:56:11.263Z,100841.25
2022-08-02T11:59:14.519Z,100852.53
2022-08-02T12:02:07.732Z,100857.47
2022-08-02T12:05:02.141Z,100858.69
2022-08-02T12:07:53.696Z,100864.09
2022-08-02T12:10:51.324Z,100868.66
2022-08-02T12:13:57.169Z,100870.53
2022-08-02T12:17:05.799Z,100870.16
2022-08-02T12:19:56.014Z,100877.22
2022-08-02T12:22:47.021Z,100867.81
2022-08-02T12:25:36.779Z,100872.19
2022-08-02T12:28:28.196Z,100866.81
2022-08-02T12:31:19.599Z,100866.16
2022-08-02T12:34:19.428Z,100874.91
2022-08-02T12:37:11.907Z,100874.06
2022-08-02T12:40:01.422Z,100891.00
2022-08-02T12:42:56.926Z,100880.84
2022-08-02T12:45:56.862Z,100887.28
2022-08-02T12:49:08.373Z,100889.31
2022-08-02T12:52:00.973Z,100904.00
2022-08-02T12:54:53.289Z,100914.38
2022-08-02T12:58:18.856Z,100913.50
2022-08-02T13:01:08.115Z,100924.50
2022-08-02T13:04:07.915Z,100921.81
2022-08-02T13:07:03.465Z,100923.56
2022-08-02T13:10:00.231Z,100924.41
2022-08-02T13:12:53.272Z,100931.88
2022-08-02T13:15:50.164Z,100928.13
2022-08-02T13:18:40.897Z,100931.88
2022-08-02T13:21:40.049Z,100921.88
2022-08-02T13:24:39.588Z,100930.63
2022-08-02T13:27:31.849Z,100931.13
2022-08-02T13:30:21.679Z,100935.22
2022-08-02T13:33:11.508Z,100938.66
2022-08-02T13:36:01.920Z,100945.81
2022-08-02T13:38:52.413Z,100950.56
2022-08-02T13:41:42.804Z,100956.16
2022-08-02T13:44:33.810Z,100953.47
2022-08-02T13:47:26.778Z,100949.72
2022-08-02T13:50:26.155Z,100947.69
2022-08-02T13:53:19.067Z,100945.34
2022-08-02T13:56:09.268Z,100952.53
2022-08-02T13:59:02.673Z,100948.31
2022-08-02T14:02:12.984Z,100949.81
2022-08-02T14:05:07.700Z,100953.91
2022-08-02T14:08:00.439Z,100951.22
2022-08-02T14:10:52.860Z,100961.63
2022-08-02T14:13:42.821Z,100963.03
2022-08-02T14:16:33.084Z,100959.84
2022-08-02T14:19:25.873Z,100958.66
2022-08-02T14:22:15.741Z,100964.41
2022-08-02T14:25:09.294Z,100958.66
2022-08-02T14:27:59.748Z,100953.34
2022-08-02T14:30:49.724Z,100948.78
2022-08-02T14:33:39.729Z,100947.50
2022-08-02T14:36:29.951Z,100935.84
2022-08-02T14:39:19.801Z,100953.53
2022-08-02T14:42:09.417Z,100935.69
2022-08-02T14:44:59.484Z,100937.06
2022-08-02T14:47:49.378Z,100927.56
2022-08-02T14:50:39.145Z,100930.28
2022-08-02T14:53:28.899Z,100931.47
2022-08-02T14:56:28.202Z,100935.38
2022-08-02T14:59:17.915Z,100928.97
2022-08-02T15:02:09.186Z,100921.63
2022-08-02T15:05:01.386Z,100919.56
2022-08-02T15:07:51.044Z,100928.69
2022-08-02T15:10:40.468Z,100914.16
2022-08-02T15:13:30.098Z,100909.13
2022-08-02T15:16:19.817Z,100904.78
2022-08-02T15:19:09.926Z,100903.75
2022-08-02T15:22:03.152Z,100908.28
2022-08-02T15:24:55.631Z,100915.28
2022-08-02T15:27:46.366Z,100916.94
2022-08-02T15:30:36.649Z,100913.97
2022-08-02T15:33:29.051Z,100915.84
2022-08-02T15:36:19.192Z,100903.66
2022-08-02T15:39:08.742Z,100911.09
2022-08-02T15:42:01.384Z,100908.56
2022-08-02T15:44:51.622Z,100892.75
2022-08-02T15:47:48.296Z,100898.16
2022-08-02T15:50:40.643Z,100890.06
2022-08-02T15:53:30.288Z,100889.41
2022-08-02T15:56:23.776Z,100891.44
2022-08-02T15:59:14.843Z,100884.38
2022-08-02T16:02:05.717Z,100897.22
2022-08-02T16:04:56.043Z,100903.25
2022-08-02T16:07:47.128Z,100902.25
2022-08-02T16:10:38.065Z,100908.66
2022-08-02T16:13:52.914Z,100903.81
2022-08-02T16:16:43.112Z,100894.72
2022-08-02T16:19:49.061Z,100891.81
2022-08-02T16:22:40.584Z,100887.78
2022-08-02T16:25:30.242Z,100894.03
2022-08-02T16:28:19.587Z,100890.47
2022-08-02T16:31:11.663Z,100883.41
2022-08-02T16:34:02.096Z,100872.63
2022-08-02T16:36:51.240Z,100880.41
2022-08-02T16:39:40.564Z,100880.41
2022-08-02T16:42:29.683Z,100876.69
2022-08-02T16:48:29.338Z,100874.19
2022-08-02T16:51:19.963Z,100880.41
2022-08-02T16:54:10.110Z,100874.72
2022-08-02T16:56:59.566Z,100873.06
2022-08-02T16:59:57.422Z,100870.19
2022-08-02T17:02:59.823Z,100866.66
2022-08-02T17:06:02.649Z,100874.06
2022-08-02T17:08:55.031Z,100867.38
2022-08-02T17:11:46.633Z,100860.78
2022-08-02T17:14:54.474Z,100858.63
2022-08-02T17:17:45.995Z,100857.31
2022-08-02T17:20:36.520Z,100852.94
2022-08-02T17:24:05.747Z,100855.84
2022-08-02T17:26:38.504Z,100856.00
2022-08-02T17:29:27.875Z,100855.00
2022-08-02T17:32:22.302Z,100848.56
2022-08-02T17:35:15.710Z,100844.19
2022-08-02T17:38:06.754Z,100847.09
2022-08-02T17:40:58.458Z,100843.47
2022-08-02T17:43:48.317Z,100842.25
2022-08-02T17:46:37.876Z,100832.84
2022-08-02T17:49:28.143Z,100834.72
2022-08-02T17:52:50.673Z,100826.78
2022-08-02T17:55:31.076Z,100825.31
2022-08-02T17:58:21.462Z,100819.44
2022-08-02T18:01:24.068Z,100821.31
2022-08-02T18:04:14.705Z,100821.50
2022-08-02T18:07:09.671Z,100819.81
2022-08-02T18:10:00.596Z,100824.38
2022-08-02T18:12:50.506Z,100823.06
2022-08-02T18:15:39.903Z,100819.53
2022-08-02T18:18:30.475Z,100820.34
2022-08-02T18:21:22.429Z,100819.88
2022-08-02T18:24:13.011Z,100817.50
2022-08-02T18:27:02.539Z,100811.13
2022-08-02T18:30:00.261Z,100807.41
2022-08-02T18:33:56.939Z,100809.81
2022-08-02T18:36:04.061Z,100812.66
2022-08-02T18:38:53.862Z,100804.78
2022-08-02T18:41:47.920Z,100806.81
2022-08-02T18:44:38.232Z,100806.81
2022-08-02T18:47:32.977Z,100814.06
2022-08-02T18:50:22.875Z,100806.81
2022-08-02T18:56:32.567Z,100802.63
2022-08-02T18:59:22.402Z,100791.38
2022-08-02T19:02:14.053Z,100796.41
2022-08-02T19:05:07.451Z,100789.34
2022-08-02T19:07:57.616Z,100790.53
2022-08-02T19:10:49.949Z,100787.84
2022-08-02T19:13:42.674Z,100792.91
2022-08-02T19:16:36.738Z,100792.09
2022-08-02T19:19:28.731Z,100796.47
2022-08-02T19:22:20.529Z,100792.09
2022-08-02T19:25:14.344Z,100789.56
2022-08-02T19:28:11.809Z,100793.47
2022-08-02T19:31:02.060Z,100800.53
2022-08-02T19:34:06.280Z,100801.56
2022-08-02T19:36:57.787Z,100798.22
2022-08-02T19:39:48.263Z,100800.25
2022-08-02T19:42:41.671Z,100802.28
2022-08-02T19:45:51.097Z,100806.81
2022-08-02T19:48:45.289Z,100800.59
2022-08-02T19:51:54.595Z,100796.91
2022-08-02T19:54:55.174Z,100795.22
2022-08-02T19:57:45.993Z,100806.00
2022-08-02T20:00:37.191Z,100803.47
2022-08-02T20:03:51.305Z,100809.69
2022-08-02T20:06:36.476Z,100802.63
2022-08-02T20:09:33.451Z,100805.50
2022-08-02T20:12:37.421Z,100799.28
2022-08-02T20:15:51.796Z,100803.16
2022-08-02T20:18:38.165Z,100806.03
2022-08-02T20:21:35.398Z,100808.75
2022-08-02T20:24:26.756Z,100817.84
2022-08-02T20:27:21.121Z,100814.47
2022-08-02T20:30:14.565Z,100827.75
2022-08-02T20:33:21.257Z,100827.75
2022-08-02T20:36:11.812Z,100828.31
2022-08-02T20:39:02.445Z,100831.00
2022-08-02T20:41:53.139Z,100823.94
2022-08-02T20:44:49.513Z,100818.56
2022-08-02T20:47:40.118Z,100818.72
2022-08-02T20:50:49.243Z,100811.66
2022-08-02T20:53:54.757Z,100810.47
2022-08-02T20:56:46.424Z,100813.53
2022-08-02T20:59:42.052Z,100812.66
2022-08-02T21:02:32.468Z,100812.16
2022-08-02T21:05:43.323Z,100806.78
2022-08-02T21:08:31.284Z,100811.50
2022-08-02T21:11:25.522Z,100808.00
2022-08-02T21:14:23.608Z,100808.16
2022-08-02T21:17:17.966Z,100810.84
2022-08-02T21:20:12.791Z,100808.16
2022-08-02T21:23:18.259Z,100809.16
2022-08-02T21:26:09.967Z,100813.38
2022-08-02T21:29:00.953Z,100806.47
2022-08-02T21:31:53.264Z,100805.66
2022-08-02T21:34:42.686Z,100805.00
2022-08-02T21:37:33.333Z,100797.06
2022-08-02T21:40:35.136Z,100797.75
2022-08-02T21:43:35.212Z,100802.47
2022-08-02T21:46:28.252Z,100807.03
2022-08-02T21:49:18.848Z,100809.72
2022-08-02T21:52:10.276Z,100803.47
2022-08-02T21:54:59.902Z,100805.69
2022-08-02T21:57:49.506Z,100813.59
2022-08-02T22:00:39.320Z,100807.53
2022-08-02T22:03:30.171Z,100823.03
2022-08-02T22:06:19.961Z,100818.31
2022-08-02T22:09:17.386Z,100823.38
2022-08-02T22:12:10.366Z,100829.78
2022-08-02T22:15:10.783Z,100830.78
2022-08-02T22:18:00.708Z,100842.41
2022-08-02T22:20:50.089Z,100843.22
2022-08-02T22:23:50.012Z,100848.28
2022-08-02T22:26:40.112Z,100844.44
2022-08-02T22:29:29.627Z,100854.50
2022-08-02T22:32:40.923Z,100855.69
2022-08-02T22:35:31.213Z,100858.56
2022-08-02T22:38:22.083Z,100858.56
2022-08-02T22:41:17.624Z,100861.41
2022-08-02T22:44:07.500Z,100863.44
2022-08-02T22:46:57.564Z,100864.28
2022-08-02T22:49:53.079Z,100854.34
2022-08-02T22:52:46.916Z,100861.41
2022-08-02T22:55:41.601Z,100860.09
2022-08-02T22:58:31.703Z,100860.09
2022-08-02T22:58:45.839Z,100798.09
2022-08-02T22:58:49.219Z,100879.22
2022-08-02T23:01:22.322Z,100872.53
2022-08-02T23:04:12.747Z,100860.94
2022-08-02T23:07:02.887Z,100870.84
2022-08-02T23:09:52.728Z,100867.16
2022-08-02T23:12:43.353Z,100868.00
2022-08-02T23:15:54.921Z,100868.00
2022-08-02T23:19:04.470Z,100875.41
2022-08-02T23:22:02.639Z,100864.28
2022-08-02T23:24:53.644Z,100863.09
2022-08-02T23:27:49.906Z,100870.34
2022-08-02T23:30:40.255Z,100868.47
2022-08-02T23:33:29.775Z,100875.53
2022-08-02T23:36:19.035Z,100873.50
2022-08-02T23:39:08.953Z,100883.28
2022-08-02T23:41:59.581Z,100888.69
2022-08-02T23:44:48.951Z,100884.97
2022-08-02T23:47:38.770Z,100879.44
2022-08-02T23:50:28.484Z,100879.25
2022-08-02T23:53:18.057Z,100880.56
2022-08-02T23:56:08.347Z,100875.19
2022-08-02T23:58:58.507Z,100879.75
